createdAt,value
2019-02-15T00:03:00.620Z,45.03
2019-02-15T00:06:02.567Z,44.07
2019-02-15T00:09:04.830Z,43.47
2019-02-15T00:12:08.623Z,46.90
2019-02-15T00:15:10.504Z,45.20
2019-02-15T00:18:14.385Z,46.90
2019-02-15T00:21:20.874Z,45.43
2019-02-15T00:24:22.864Z,45.40
2019-02-15T00:27:25.196Z,43.27
2019-02-15T00:30:27.073Z,44.70
2019-02-15T00:33:28.939Z,44.10
2019-02-15T00:36:30.824Z,47.23
2019-02-15T00:39:32.774Z,43.90
2019-02-15T00:42:34.674Z,46.57
2019-02-15T00:45:41.579Z,44.40
2019-02-15T00:48:43.583Z,45.23
2019-02-15T00:51:47.298Z,46.50
2019-02-15T00:54:51.041Z,45.83
2019-02-15T00:58:10.079Z,42.03
2019-02-15T01:01:19.800Z,46.53
2019-02-15T01:04:23.584Z,42.73
2019-02-15T01:07:30.176Z,42.63
2019-02-15T01:10:33.895Z,44.50
2019-02-15T01:13:35.813Z,45.57
2019-02-15T01:16:38.180Z,43.07
2019-02-15T01:19:40.113Z,43.80
2019-02-15T01:22:42.099Z,45.17
2019-02-15T01:25:45.787Z,51.33
2019-02-15T01:28:56.616Z,54.90
2019-02-15T01:32:03.155Z,58.53
2019-02-15T01:35:15.787Z,60.50
2019-02-15T01:38:19.565Z,56.10
2019-02-15T01:41:35.148Z,56.20
2019-02-15T01:44:41.418Z,53.87
2019-02-15T01:47:44.148Z,56.20
2019-02-15T01:50:46.217Z,53.80
2019-02-15T01:53:48.121Z,55.50
2019-02-15T01:56:49.997Z,51.43
2019-02-15T01:59:53.068Z,52.37
2019-02-15T02:02:54.975Z,51.57
2019-02-15T02:05:56.866Z,49.30
2019-02-15T02:08:58.776Z,47.90
2019-02-15T02:12:00.655Z,51.43
2019-02-15T02:15:05.429Z,45.73
2019-02-15T02:18:08.516Z,46.20
2019-02-15T02:21:10.542Z,45.70
2019-02-15T02:24:12.466Z,43.10
2019-02-15T02:27:15.587Z,42.07
2019-02-15T02:30:17.460Z,42.57
2019-02-15T02:33:19.352Z,41.27
2019-02-15T02:36:23.728Z,42.10
2019-02-15T02:39:25.702Z,44.83
2019-02-15T02:42:27.713Z,45.23
2019-02-15T02:45:32.758Z,45.33
2019-02-15T02:48:34.694Z,46.37
2019-02-15T02:51:36.713Z,45.10
2019-02-15T02:54:38.570Z,44.03
2019-02-15T02:57:40.485Z,47.13
2019-02-15T03:00:42.361Z,45.93
2019-02-15T03:03:44.256Z,44.10
2019-02-15T03:06:46.083Z,46.53
2019-02-15T03:09:48.014Z,48.37
2019-02-15T03:12:49.882Z,49.07
2019-02-15T03:15:51.721Z,48.63
2019-02-15T03:18:53.619Z,51.50
2019-02-15T03:21:55.633Z,52.90
2019-02-15T03:24:57.514Z,52.77
2019-02-15T03:27:59.491Z,64.03
2019-02-15T03:31:01.425Z,63.57
2019-02-15T03:34:03.463Z,55.70
2019-02-15T03:37:24.052Z,49.77
2019-02-15T03:40:27.911Z,48.17
2019-02-15T03:43:30.472Z,47.70
2019-02-15T03:46:32.436Z,45.43
2019-02-15T03:49:34.308Z,42.70
2019-02-15T03:52:36.662Z,45.77
2019-02-15T03:55:38.549Z,42.97
2019-02-15T03:58:40.663Z,41.70
2019-02-15T04:01:42.546Z,43.70
2019-02-15T04:04:44.766Z,43.57
2019-02-15T04:07:46.693Z,41.80
2019-02-15T04:10:49.673Z,42.57
2019-02-15T04:13:51.504Z,41.50
2019-02-15T04:16:53.846Z,39.10
2019-02-15T04:19:55.738Z,42.00
2019-02-15T04:22:57.817Z,40.27
2019-02-15T04:25:59.680Z,40.23
2019-02-15T04:29:01.663Z,41.53
2019-02-15T04:32:03.584Z,39.90
2019-02-15T04:35:06.981Z,40.53
2019-02-15T04:38:08.871Z,43.10
2019-02-15T04:41:10.784Z,39.17
2019-02-15T04:44:12.784Z,38.47
2019-02-15T04:47:14.768Z,38.37
2019-02-15T04:50:16.642Z,39.63
2019-02-15T04:53:18.720Z,40.77
2019-02-15T04:56:20.631Z,39.13
2019-02-15T04:59:22.547Z,38.60
2019-02-15T05:02:24.503Z,38.30
2019-02-15T05:05:26.376Z,40.60
2019-02-15T05:08:28.347Z,38.77
2019-02-15T05:11:30.187Z,38.00
2019-02-15T05:14:32.130Z,40.20
2019-02-15T05:17:33.980Z,44.00
2019-02-15T05:20:35.925Z,39.67
2019-02-15T05:23:37.850Z,37.73
2019-02-15T05:26:39.749Z,41.50
2019-02-15T05:29:41.669Z,39.37
2019-02-15T05:32:43.580Z,40.80
2019-02-15T05:35:45.629Z,35.87
2019-02-15T05:38:47.494Z,37.90
2019-02-15T05:41:49.424Z,33.90
2019-02-15T05:44:51.491Z,35.10
2019-02-15T05:47:53.381Z,34.97
2019-02-15T05:50:55.363Z,38.47
2019-02-15T05:53:57.383Z,36.77
2019-02-15T05:56:59.365Z,36.30
2019-02-15T06:00:01.185Z,36.80
2019-02-15T06:03:03.194Z,35.13
2019-02-15T06:06:05.183Z,36.77
2019-02-15T06:09:07.149Z,37.43
2019-02-15T06:12:09.014Z,39.20
2019-02-15T06:15:15.110Z,38.07
2019-02-15T06:18:14.815Z,37.10
2019-02-15T06:21:16.783Z,36.67
2019-02-15T06:24:18.738Z,38.27
2019-02-15T06:27:20.667Z,37.73
2019-02-15T06:30:22.541Z,38.10
2019-02-15T06:33:24.423Z,36.83
2019-02-15T06:36:28.129Z,39.43
2019-02-15T06:39:30.058Z,37.87
2019-02-15T06:42:32.007Z,37.63
2019-02-15T06:45:34.174Z,38.17
2019-02-15T06:48:36.114Z,37.33
2019-02-15T06:51:38.037Z,33.90
2019-02-15T06:54:40.142Z,33.80
2019-02-15T06:57:42.457Z,33.13
2019-02-15T07:01:00.999Z,33.77
2019-02-15T07:04:07.532Z,33.40
2019-02-15T07:07:09.421Z,33.93
2019-02-15T07:10:11.325Z,33.57
2019-02-15T07:13:14.286Z,33.43
2019-02-15T07:16:16.299Z,31.77
2019-02-15T07:19:18.263Z,32.40
2019-02-15T07:22:20.214Z,30.30
2019-02-15T07:25:22.274Z,32.33
2019-02-15T07:28:24.262Z,30.47
2019-02-15T07:31:26.154Z,33.20
2019-02-15T07:34:28.186Z,32.27
2019-02-15T07:37:30.078Z,32.73
2019-02-15T07:40:32.913Z,33.63
2019-02-15T07:43:34.936Z,35.07
2019-02-15T07:46:36.807Z,33.60
2019-02-15T07:49:38.793Z,32.67
2019-02-15T07:52:40.726Z,29.67
2019-02-15T07:55:42.894Z,27.40
2019-02-15T07:58:44.793Z,28.80
2019-02-15T08:01:46.778Z,24.07
2019-02-15T08:04:48.670Z,25.37
2019-02-15T08:07:50.613Z,26.97
2019-02-15T08:10:52.641Z,26.00
2019-02-15T08:13:54.508Z,28.57
2019-02-15T08:16:56.540Z,27.77
2019-02-15T08:19:58.474Z,27.43
2019-02-15T08:23:00.492Z,28.57
2019-02-15T08:26:02.480Z,24.83
2019-02-15T08:29:04.423Z,26.73
2019-02-15T08:32:06.435Z,22.60
2019-02-15T08:35:09.539Z,21.00
2019-02-15T08:38:12.709Z,21.83
2019-02-15T08:41:14.606Z,21.10
2019-02-15T08:44:16.592Z,21.23
2019-02-15T08:47:20.923Z,20.03
2019-02-15T08:50:23.485Z,18.40
2019-02-15T08:53:25.458Z,18.03
2019-02-15T08:56:30.748Z,18.60
2019-02-15T08:59:32.706Z,17.70
2019-02-15T09:02:34.643Z,16.83
2019-02-15T09:05:36.575Z,18.60
2019-02-15T09:08:38.513Z,17.87
2019-02-15T09:11:40.417Z,16.50
2019-02-15T09:14:42.372Z,16.57
2019-02-15T09:17:44.281Z,17.13
2019-02-15T09:20:46.232Z,16.17
2019-02-15T09:23:48.134Z,13.80
2019-02-15T09:26:50.102Z,15.33
2019-02-15T09:29:51.996Z,14.77
2019-02-15T09:32:53.900Z,15.13
2019-02-15T09:35:55.793Z,14.70
2019-02-15T09:38:57.774Z,13.03
2019-02-15T09:41:59.739Z,15.10
2019-02-15T09:45:01.712Z,14.13
2019-02-15T09:48:03.571Z,15.57
2019-02-15T09:51:05.562Z,13.80
2019-02-15T09:54:08.670Z,14.00
2019-02-15T09:57:10.836Z,14.87
2019-02-15T10:00:12.912Z,12.57
2019-02-15T10:03:14.876Z,13.37
2019-02-15T10:06:16.788Z,14.10
2019-02-15T10:09:19.904Z,13.60
2019-02-15T10:12:21.851Z,14.03
2019-02-15T10:15:23.815Z,13.37
2019-02-15T10:18:25.726Z,14.23
2019-02-15T10:21:27.938Z,13.53
2019-02-15T10:24:29.872Z,13.70
2019-02-15T10:27:31.989Z,15.17
2019-02-15T10:30:33.863Z,15.37
2019-02-15T10:33:36.321Z,14.47
2019-02-15T10:36:38.367Z,13.80
2019-02-15T10:39:40.538Z,14.93
2019-02-15T10:42:42.528Z,14.17
2019-02-15T10:45:44.446Z,14.33
2019-02-15T10:48:46.391Z,14.30
2019-02-15T10:51:48.316Z,14.77
2019-02-15T10:54:50.198Z,14.47
2019-02-15T10:57:52.430Z,13.63
2019-02-15T11:00:54.429Z,14.17
2019-02-15T11:03:56.514Z,13.10
2019-02-15T11:06:58.470Z,13.90
2019-02-15T11:10:00.470Z,13.40
2019-02-15T11:13:03.534Z,14.53
2019-02-15T11:16:05.484Z,14.27
2019-02-15T11:19:07.405Z,13.33
2019-02-15T11:22:09.374Z,13.00
2019-02-15T11:25:11.322Z,14.27
2019-02-15T11:28:13.291Z,13.47
2019-02-15T11:31:16.947Z,13.40
2019-02-15T11:34:19.159Z,13.40
2019-02-15T11:37:21.117Z,12.93
2019-02-15T11:40:23.164Z,12.70
2019-02-15T11:43:25.660Z,12.70
2019-02-15T11:46:27.617Z,12.57
2019-02-15T11:49:29.641Z,11.97
2019-02-15T11:52:31.679Z,13.03
2019-02-15T11:55:33.575Z,12.83
2019-02-15T11:58:35.885Z,11.50
2019-02-15T12:01:37.771Z,12.67
2019-02-15T12:04:39.676Z,11.47
2019-02-15T12:07:41.644Z,11.07
2019-02-15T12:10:43.602Z,12.47
2019-02-15T12:13:45.461Z,10.77
2019-02-15T12:16:47.589Z,13.03
2019-02-15T12:19:49.629Z,11.27
2019-02-15T12:22:51.617Z,11.90
2019-02-15T12:25:53.483Z,12.17
2019-02-15T12:28:55.438Z,12.07
2019-02-15T12:31:57.403Z,11.37
2019-02-15T12:34:59.403Z,12.77
2019-02-15T12:38:01.308Z,10.50
2019-02-15T12:41:03.311Z,10.73
2019-02-15T12:44:05.237Z,11.40
2019-02-15T12:47:14.838Z,11.13
2019-02-15T12:50:14.929Z,11.97
2019-02-15T12:53:16.892Z,10.10
2019-02-15T12:56:18.915Z,10.17
2019-02-15T12:59:20.944Z,11.50
2019-02-15T13:02:22.896Z,10.13
2019-02-15T13:05:24.766Z,10.67
2019-02-15T13:08:26.780Z,9.93
2019-02-15T13:11:28.721Z,12.00
2019-02-15T13:14:30.669Z,10.50
2019-02-15T13:17:32.661Z,10.23
2019-02-15T13:20:34.663Z,10.23
2019-02-15T13:23:36.569Z,10.77
2019-02-15T13:26:38.799Z,10.27
2019-02-15T13:29:40.963Z,10.87
2019-02-15T13:32:43.066Z,9.30
2019-02-15T13:35:44.934Z,12.00
2019-02-15T13:38:47.004Z,10.40
2019-02-15T13:41:48.935Z,9.83
2019-02-15T13:44:50.881Z,9.47
2019-02-15T13:47:52.893Z,9.77
2019-02-15T13:50:54.991Z,10.30
2019-02-15T13:53:56.893Z,9.67
2019-02-15T13:56:58.987Z,10.87
2019-02-15T14:00:01.058Z,11.93
2019-02-15T14:03:03.391Z,9.93
2019-02-15T14:06:05.284Z,9.73
2019-02-15T14:09:08.354Z,10.63
2019-02-15T14:12:10.308Z,10.17
2019-02-15T14:15:12.658Z,10.73
2019-02-15T14:18:15.714Z,10.03
2019-02-15T14:21:17.696Z,10.83
2019-02-15T14:24:19.620Z,10.73
2019-02-15T14:27:21.671Z,10.57
2019-02-15T14:30:23.730Z,9.50
2019-02-15T14:33:25.878Z,10.47
2019-02-15T14:36:27.953Z,10.80
2019-02-15T14:39:29.950Z,10.33
2019-02-15T14:42:31.854Z,10.40
2019-02-15T14:45:33.751Z,11.57
2019-02-15T14:48:35.606Z,9.63
2019-02-15T14:51:37.767Z,10.20
2019-02-15T14:54:40.237Z,10.33
2019-02-15T14:57:42.463Z,10.57
2019-02-15T15:00:44.709Z,35.47
2019-02-15T15:03:47.145Z,13.30
2019-02-15T15:06:49.065Z,14.07
2019-02-15T15:09:51.474Z,13.27
2019-02-15T15:12:54.833Z,12.67
2019-02-15T15:15:56.757Z,58.77
2019-02-15T15:18:58.665Z,55.83
2019-02-15T15:22:03.511Z,15.87
2019-02-15T15:25:08.461Z,12.70
2019-02-15T15:28:10.570Z,10.37
2019-02-15T15:31:12.819Z,11.77
2019-02-15T15:34:16.195Z,12.13
2019-02-15T15:37:18.082Z,11.57
2019-02-15T15:40:19.995Z,11.43
2019-02-15T15:43:22.059Z,13.43
2019-02-15T15:46:24.109Z,12.23
2019-02-15T15:49:27.963Z,12.97
2019-02-15T15:52:30.081Z,14.90
2019-02-15T15:55:32.027Z,12.87
2019-02-15T15:58:35.994Z,13.80
2019-02-15T16:01:38.097Z,14.00
2019-02-15T16:04:41.886Z,13.77
2019-02-15T16:07:44.167Z,13.37
2019-02-15T16:10:46.513Z,12.37
2019-02-15T16:13:48.954Z,13.30
2019-02-15T16:16:51.043Z,13.27
2019-02-15T16:19:53.090Z,16.43
2019-02-15T16:22:55.201Z,13.70
2019-02-15T16:25:57.240Z,12.90
2019-02-15T16:28:59.182Z,12.70
2019-02-15T16:32:02.859Z,12.00
2019-02-15T16:35:05.692Z,11.63
2019-02-15T16:38:08.024Z,12.23
2019-02-15T16:41:10.359Z,13.23
2019-02-15T16:44:12.746Z,12.97
2019-02-15T16:47:14.881Z,13.07
2019-02-15T16:50:17.232Z,14.23
2019-02-15T16:53:21.112Z,18.73
2019-02-15T16:56:23.197Z,18.37
2019-02-15T16:59:25.128Z,19.20
2019-02-15T17:02:27.158Z,19.87
2019-02-15T17:05:29.073Z,21.23
2019-02-15T17:08:31.094Z,17.77
2019-02-15T17:11:34.217Z,16.80
2019-02-15T17:14:36.152Z,18.20
2019-02-15T17:17:38.138Z,15.30
2019-02-15T17:20:42.195Z,16.43
2019-02-15T17:23:45.325Z,13.97
2019-02-15T17:26:47.313Z,13.17
2019-02-15T17:29:51.114Z,15.07
2019-02-15T17:32:53.495Z,20.40
2019-02-15T17:35:55.525Z,17.30
2019-02-15T17:38:59.097Z,15.27
2019-02-15T17:42:01.079Z,18.60
2019-02-15T17:45:05.816Z,19.50
2019-02-15T17:48:07.822Z,22.60
2019-02-15T17:51:10.008Z,21.33
2019-02-15T17:54:13.118Z,22.20
2019-02-15T17:57:16.443Z,26.90
2019-02-15T18:00:20.520Z,30.30
2019-02-15T18:03:23.155Z,26.33
2019-02-15T18:06:25.552Z,24.80
2019-02-15T18:09:29.354Z,22.73
2019-02-15T18:12:31.935Z,23.67
2019-02-15T18:15:34.288Z,23.57
2019-02-15T18:18:37.764Z,27.97
2019-02-15T18:21:41.535Z,27.93
2019-02-15T18:24:44.125Z,36.70
2019-02-15T18:27:47.494Z,43.43
2019-02-15T18:30:51.254Z,45.53
2019-02-15T18:33:53.652Z,44.80
2019-02-15T18:36:55.645Z,49.37
2019-02-15T18:39:57.563Z,54.80
2019-02-15T18:42:59.541Z,49.67
2019-02-15T18:46:01.805Z,40.30
2019-02-15T18:49:04.109Z,34.57
2019-02-15T18:52:06.167Z,30.93
2019-02-15T18:55:11.980Z,32.07
2019-02-15T18:58:15.619Z,29.70
2019-02-15T19:01:20.842Z,32.67
2019-02-15T19:04:23.116Z,47.30
2019-02-15T19:07:25.999Z,79.97
2019-02-15T19:10:30.718Z,59.40
2019-02-15T19:13:32.957Z,43.37
2019-02-15T19:16:34.961Z,35.33
2019-02-15T19:19:36.918Z,31.90
2019-02-15T19:22:39.191Z,29.77
2019-02-15T19:25:42.935Z,32.23
2019-02-15T19:28:44.918Z,35.57
2019-02-15T19:31:49.830Z,42.20
2019-02-15T19:34:51.755Z,48.30
2019-02-15T19:37:59.679Z,50.17
2019-02-15T19:41:04.177Z,50.13
2019-02-15T19:44:08.972Z,54.70
2019-02-15T19:47:10.930Z,46.67
2019-02-15T19:50:16.673Z,40.67
2019-02-15T19:53:20.138Z,36.00
2019-02-15T19:56:23.554Z,31.13
2019-02-15T19:59:30.641Z,29.27
2019-02-15T20:02:35.145Z,32.57
2019-02-15T20:05:37.560Z,35.83
2019-02-15T20:08:40.951Z,46.23
2019-02-15T20:11:46.560Z,59.53
2019-02-15T20:14:50.292Z,60.90
2019-02-15T20:17:53.064Z,107.37
2019-02-15T20:20:56.262Z,156.00
2019-02-15T20:24:02.011Z,105.07
2019-02-15T20:27:03.930Z,81.83
2019-02-15T20:30:12.292Z,63.47
2019-02-15T20:33:14.273Z,55.93
2019-02-15T20:36:18.615Z,57.07
2019-02-15T20:39:21.599Z,57.10
2019-02-15T20:42:24.435Z,55.43
2019-02-15T20:45:26.590Z,51.67
2019-02-15T20:48:28.717Z,53.13
2019-02-15T20:51:30.642Z,48.60
2019-02-15T20:54:33.727Z,48.10
2019-02-15T20:57:35.690Z,53.23
2019-02-15T21:00:37.960Z,53.33
2019-02-15T21:03:40.309Z,55.73
2019-02-15T21:06:44.264Z,63.37
2019-02-15T21:09:46.840Z,76.50
2019-02-15T21:12:48.692Z,81.77
2019-02-15T21:15:52.570Z,81.37
2019-02-15T21:18:56.403Z,82.80
2019-02-15T21:22:02.460Z,78.73
2019-02-15T21:25:08.061Z,81.93
2019-02-15T21:28:12.998Z,75.53
2019-02-15T21:31:15.226Z,79.87
2019-02-15T21:34:17.200Z,69.70
2019-02-15T21:37:19.510Z,65.27
2019-02-15T21:40:23.245Z,63.70
2019-02-15T21:43:25.201Z,62.30
2019-02-15T21:46:27.172Z,60.23
2019-02-15T21:49:29.204Z,57.67
2019-02-15T21:52:31.192Z,56.13
2019-02-15T21:55:33.458Z,57.70
2019-02-15T21:58:35.396Z,55.70
2019-02-15T22:01:37.340Z,56.67
2019-02-15T22:04:39.317Z,55.73
2019-02-15T22:07:41.242Z,51.63
2019-02-15T22:10:43.791Z,50.27
2019-02-15T22:13:46.969Z,48.93
2019-02-15T22:16:48.863Z,49.17
2019-02-15T22:19:50.774Z,45.63
2019-02-15T22:22:52.713Z,46.27
2019-02-15T22:25:54.620Z,46.27
2019-02-15T22:28:56.683Z,48.07
2019-02-15T22:31:58.559Z,46.47
2019-02-15T22:35:00.804Z,45.70
2019-02-15T22:38:03.658Z,46.90
2019-02-15T22:41:14.664Z,50.93
2019-02-15T22:44:16.846Z,52.87
2019-02-15T22:47:19.894Z,54.53
2019-02-15T22:50:21.892Z,54.17
2019-02-15T22:53:23.803Z,64.33
2019-02-15T22:56:27.611Z,62.20
2019-02-15T22:59:29.531Z,55.90
2019-02-15T23:02:31.475Z,57.00
2019-02-15T23:05:33.591Z,44.87
2019-02-15T23:08:35.421Z,43.13
2019-02-15T23:11:37.414Z,42.93
2019-02-15T23:14:39.299Z,42.93
2019-02-15T23:17:41.236Z,42.13
2019-02-15T23:20:45.148Z,39.07
2019-02-15T23:23:46.951Z,40.93
2019-02-15T23:26:48.830Z,40.90
2019-02-15T23:29:50.907Z,42.47
2019-02-15T23:32:52.854Z,43.10
2019-02-15T23:35:54.854Z,40.87
2019-02-15T23:38:56.735Z,40.67
2019-02-15T23:41:58.698Z,42.20
2019-02-15T23:45:00.658Z,41.23
2019-02-15T23:48:02.537Z,42.03
2019-02-15T23:51:04.506Z,40.53
2019-02-15T23:54:06.399Z,41.13
2019-02-15T23:57:09.349Z,38.27
